Pagrindinis puslapis
METAR-TAF:

METAR-TAF

Oro uostai :

Džakarta, Java, Indonezija

platuma: 06-07S, ilguma: 106-39E, Aukštis: 8 m

Dabartinis oras

Ataskaita buvo paskelbta 36 minutes, ne 06:30 UTC
Vėjas 12 kt iš Šiaurės/Šiaurės Vakarų
Temperatūra 31°C
Drėgmė 66%
Slėgis 1010 hPa
Matomumas: 7000 m
Išsisklaidę debesys ne aukštis 2000 ft

METAR: WIII 230630Z 34012KT 7000 SCT020 31/24 Q1010 NOSIG

Laikas: 14:06 (07:06 UTC)

Prognozė

Ataskaita buvo paskelbta 2 valandos ir 6 minutes, ne 05:00 UTC
Prognozė galioja nuo 23 metu 06 UTC su 24 metu 12 UTC
Vėjas 11 kt iš Šiaurės/Šiaurės Vakarų
Matomumas: 9000 m
Išsisklaidę debesys ne aukštis 2000 ft
Tapsmas
nuo 23 metu 14 UTC su 23 metu 16 UTC
Vėjas 4 kt iš Pietvakarių
Laikinai
nuo 23 metu 16 UTC su 23 metu 20 UTC
Vėjas 12 kt iš Vakarų/Pietvakarių su gūsio iki 25 kt
Matomumas: 3000 m
Mažai debesys ne aukštis 1800 ft, Liūtiniai kamuoliniai debesys.
Su prošvaistėmis ne aukštis 2000 ft
perkūnija, lietus

TAF: WIII 230500Z 2306/2412 33011KT 9000 SCT020 BECMG 2314/2316 22004KT TEMPO 2316/2320 24012G25KT 3000 TSRA FEW018CB BKN020

Orai ataskaitas ir orų prognozės (METAR, TAF).

turimą stotys yra geltonos ir raudonos taškus žemėlapyje.

Perkelti pele per norėdami pamatyti stoties vardą.

Tada spustelėkite, norėdami matyti oro stebėjimo ir prognozės.

Norėdami pakeisti žemėlapį: spustelėkite ant žalios mygtukų su juodo kryžiaus žemyn,; žalią mygtuką su brūkšneliu, jei norite nutolinti; arba žalių rodyklių gretimoms žemėlapius.


METAR-TAF: